sensor_id;sensor_type;location;lat;lon;timestamp;P1;durP1;ratioP1;P2;durP2;ratioP2
12437;SDS011;6283;51.330;12.374;2023-06-24T00:02:16;19.77;;;14.68;;
12437;SDS011;6283;51.330;12.374;2023-06-24T00:04:42;22.92;;;14.88;;
12437;SDS011;6283;51.330;12.374;2023-06-24T00:07:07;21.45;;;15.57;;
12437;SDS011;6283;51.330;12.374;2023-06-24T00:09:33;22.13;;;15.60;;
12437;SDS011;6283;51.330;12.374;2023-06-24T00:11:59;21.58;;;15.25;;
12437;SDS011;6283;51.330;12.374;2023-06-24T00:14:28;21.88;;;15.60;;
12437;SDS011;6283;51.330;12.374;2023-06-24T00:16:55;23.42;;;14.88;;
12437;SDS011;6283;51.330;12.374;2023-06-24T00:19:24;21.38;;;14.07;;
12437;SDS011;6283;51.330;12.374;2023-06-24T00:21:52;23.40;;;15.50;;
12437;SDS011;6283;51.330;12.374;2023-06-24T00:24:21;22.35;;;14.32;;
12437;SDS011;6283;51.330;12.374;2023-06-24T00:26:53;22.00;;;14.90;;
12437;SDS011;6283;51.330;12.374;2023-06-24T00:29:20;25.50;;;14.70;;
12437;SDS011;6283;51.330;12.374;2023-06-24T00:31:45;23.77;;;14.30;;
12437;SDS011;6283;51.330;12.374;2023-06-24T00:34:11;26.88;;;14.13;;
12437;SDS011;6283;51.330;12.374;2023-06-24T00:36:37;17.05;;;14.23;;
12437;SDS011;6283;51.330;12.374;2023-06-24T00:39:03;27.00;;;15.20;;
12437;SDS011;6283;51.330;12.374;2023-06-24T00:41:30;21.77;;;14.30;;
12437;SDS011;6283;51.330;12.374;2023-06-24T00:43:57;21.80;;;14.23;;
12437;SDS011;6283;51.330;12.374;2023-06-24T00:46:24;22.08;;;13.95;;
12437;SDS011;6283;51.330;12.374;2023-06-24T00:48:54;21.70;;;13.70;;
12437;SDS011;6283;51.330;12.374;2023-06-24T00:51:21;20.30;;;13.52;;
12437;SDS011;6283;51.330;12.374;2023-06-24T00:53:51;22.30;;;13.85;;
12437;SDS011;6283;51.330;12.374;2023-06-24T00:56:18;22.02;;;14.30;;
12437;SDS011;6283;51.330;12.374;2023-06-24T00:58:46;17.88;;;14.10;;
12437;SDS011;6283;51.330;12.374;2023-06-24T01:01:12;23.10;;;13.98;;
12437;SDS011;6283;51.330;12.374;2023-06-24T01:03:39;19.42;;;13.43;;
12437;SDS011;6283;51.330;12.374;2023-06-24T01:06:05;20.17;;;13.80;;
12437;SDS011;6283;51.330;12.374;2023-06-24T01:08:32;20.90;;;13.02;;
12437;SDS011;6283;51.330;12.374;2023-06-24T01:10:58;20.17;;;14.43;;
12437;SDS011;6283;51.330;12.374;2023-06-24T01:13:23;18.85;;;13.73;;
12437;SDS011;6283;51.330;12.374;2023-06-24T01:15:49;17.65;;;12.90;;
12437;SDS011;6283;51.330;12.374;2023-06-24T01:20:55;23.17;;;13.90;;
12437;SDS011;6283;51.330;12.374;2023-06-24T01:29:20;21.45;;;15.77;;
12437;SDS011;6283;51.330;12.374;2023-06-24T01:34:53;23.65;;;14.80;;
12437;SDS011;6283;51.330;12.374;2023-06-24T01:37:26;27.65;;;16.27;;
12437;SDS011;6283;51.330;12.374;2023-06-24T01:42:42;21.10;;;13.55;;
12437;SDS011;6283;51.330;12.374;2023-06-24T01:45:12;21.08;;;14.52;;
12437;SDS011;6283;51.330;12.374;2023-06-24T01:47:43;22.10;;;15.25;;
12437;SDS011;6283;51.330;12.374;2023-06-24T01:50:12;18.42;;;13.77;;
12437;SDS011;6283;51.330;12.374;2023-06-24T01:52:43;24.75;;;15.07;;
12437;SDS011;6283;51.330;12.374;2023-06-24T01:55:12;21.90;;;13.40;;
12437;SDS011;6283;51.330;12.374;2023-06-24T01:57:43;20.42;;;13.27;;
12437;SDS011;6283;51.330;12.374;2023-06-24T02:00:13;19.63;;;14.52;;
12437;SDS011;6283;51.330;12.374;2023-06-24T02:02:40;21.95;;;13.75;;
12437;SDS011;6283;51.330;12.374;2023-06-24T02:05:07;20.25;;;13.65;;
12437;SDS011;6283;51.330;12.374;2023-06-24T02:07:33;19.08;;;13.50;;
12437;SDS011;6283;51.330;12.374;2023-06-24T02:10:00;20.75;;;13.75;;
12437;SDS011;6283;51.330;12.374;2023-06-24T02:12:28;17.05;;;12.90;;
12437;SDS011;6283;51.330;12.374;2023-06-24T02:14:55;20.88;;;12.90;;
12437;SDS011;6283;51.330;12.374;2023-06-24T02:17:22;19.25;;;13.20;;
12437;SDS011;6283;51.330;12.374;2023-06-24T02:19:51;21.63;;;13.25;;
12437;SDS011;6283;51.330;12.374;2023-06-24T02:22:17;18.38;;;12.25;;
12437;SDS011;6283;51.330;12.374;2023-06-24T02:24:44;23.67;;;13.32;;
12437;SDS011;6283;51.330;12.374;2023-06-24T02:27:11;16.10;;;12.18;;
12437;SDS011;6283;51.330;12.374;2023-06-24T02:29:37;20.48;;;12.77;;
12437;SDS011;6283;51.330;12.374;2023-06-24T02:32:05;22.75;;;12.45;;
12437;SDS011;6283;51.330;12.374;2023-06-24T02:34:31;17.42;;;12.75;;
12437;SDS011;6283;51.330;12.374;2023-06-24T02:36:57;23.13;;;14.52;;
12437;SDS011;6283;51.330;12.374;2023-06-24T02:39:23;22.48;;;13.82;;
12437;SDS011;6283;51.330;12.374;2023-06-24T02:41:49;18.92;;;12.80;;
12437;SDS011;6283;51.330;12.374;2023-06-24T02:44:15;18.42;;;13.75;;
12437;SDS011;6283;51.330;12.374;2023-06-24T02:46:42;20.23;;;12.63;;
12437;SDS011;6283;51.330;12.374;2023-06-24T02:49:09;16.80;;;12.88;;
12437;SDS011;6283;51.330;12.374;2023-06-24T02:51:38;19.92;;;13.60;;
12437;SDS011;6283;51.330;12.374;2023-06-24T02:54:04;17.92;;;13.45;;
12437;SDS011;6283;51.330;12.374;2023-06-24T02:56:30;18.67;;;13.27;;
12437;SDS011;6283;51.330;12.374;2023-06-24T02:58:57;20.48;;;13.32;;
12437;SDS011;6283;51.330;12.374;2023-06-24T03:01:23;19.58;;;13.88;;
12437;SDS011;6283;51.330;12.374;2023-06-24T03:03:55;18.00;;;12.90;;
12437;SDS011;6283;51.330;12.374;2023-06-24T03:06:21;17.23;;;12.75;;
12437;SDS011;6283;51.330;12.374;2023-06-24T03:08:49;19.55;;;13.27;;
12437;SDS011;6283;51.330;12.374;2023-06-24T03:11:15;18.27;;;12.90;;
12437;SDS011;6283;51.330;12.374;2023-06-24T03:13:41;20.95;;;13.43;;
12437;SDS011;6283;51.330;12.374;2023-06-24T03:16:07;21.52;;;12.77;;
12437;SDS011;6283;51.330;12.374;2023-06-24T03:18:41;15.68;;;12.55;;
12437;SDS011;6283;51.330;12.374;2023-06-24T03:21:07;15.68;;;12.73;;
12437;SDS011;6283;51.330;12.374;2023-06-24T03:23:34;20.63;;;13.88;;
12437;SDS011;6283;51.330;12.374;2023-06-24T03:26:00;17.67;;;13.45;;
12437;SDS011;6283;51.330;12.374;2023-06-24T03:28:27;16.48;;;12.40;;
12437;SDS011;6283;51.330;12.374;2023-06-24T03:30:54;16.05;;;12.15;;
12437;SDS011;6283;51.330;12.374;2023-06-24T03:33:20;16.02;;;11.93;;
12437;SDS011;6283;51.330;12.374;2023-06-24T03:35:46;20.83;;;13.48;;
12437;SDS011;6283;51.330;12.374;2023-06-24T03:38:11;17.00;;;12.48;;
12437;SDS011;6283;51.330;12.374;2023-06-24T03:40:37;18.63;;;12.02;;
12437;SDS011;6283;51.330;12.374;2023-06-24T03:43:03;20.00;;;12.23;;
12437;SDS011;6283;51.330;12.374;2023-06-24T03:45:28;13.98;;;11.63;;
12437;SDS011;6283;51.330;12.374;2023-06-24T03:47:54;19.00;;;11.23;;
12437;SDS011;6283;51.330;12.374;2023-06-24T03:50:19;14.75;;;10.52;;
12437;SDS011;6283;51.330;12.374;2023-06-24T03:52:45;16.80;;;11.73;;
12437;SDS011;6283;51.330;12.374;2023-06-24T03:55:11;15.30;;;10.55;;
12437;SDS011;6283;51.330;12.374;2023-06-24T03:57:37;15.93;;;12.23;;
12437;SDS011;6283;51.330;12.374;2023-06-24T04:00:03;15.85;;;11.82;;
12437;SDS011;6283;51.330;12.374;2023-06-24T04:02:41;14.02;;;11.60;;
12437;SDS011;6283;51.330;12.374;2023-06-24T04:05:10;14.55;;;10.77;;
12437;SDS011;6283;51.330;12.374;2023-06-24T04:07:36;14.10;;;10.68;;
12437;SDS011;6283;51.330;12.374;2023-06-24T04:10:02;17.33;;;10.75;;
12437;SDS011;6283;51.330;12.374;2023-06-24T04:12:35;20.50;;;10.95;;
12437;SDS011;6283;51.330;12.374;2023-06-24T04:15:02;19.45;;;10.82;;
12437;SDS011;6283;51.330;12.374;2023-06-24T04:17:28;17.45;;;11.23;;
12437;SDS011;6283;51.330;12.374;2023-06-24T04:19:55;15.60;;;10.80;;
12437;SDS011;6283;51.330;12.374;2023-06-24T04:22:21;14.60;;;10.80;;
12437;SDS011;6283;51.330;12.374;2023-06-24T04:24:46;13.75;;;9.75;;
12437;SDS011;6283;51.330;12.374;2023-06-24T04:27:12;10.10;;;8.80;;
12437;SDS011;6283;51.330;12.374;2023-06-24T04:29:37;13.40;;;9.85;;
12437;SDS011;6283;51.330;12.374;2023-06-24T04:32:03;14.80;;;9.95;;
12437;SDS011;6283;51.330;12.374;2023-06-24T04:34:29;16.35;;;10.85;;
12437;SDS011;6283;51.330;12.374;2023-06-24T04:36:55;13.27;;;9.98;;
12437;SDS011;6283;51.330;12.374;2023-06-24T04:39:20;14.27;;;9.05;;
12437;SDS011;6283;51.330;12.374;2023-06-24T04:41:46;14.30;;;9.63;;
12437;SDS011;6283;51.330;12.374;2023-06-24T04:44:12;10.60;;;9.50;;
12437;SDS011;6283;51.330;12.374;2023-06-24T04:46:38;12.18;;;10.02;;
12437;SDS011;6283;51.330;12.374;2023-06-24T04:49:05;13.63;;;8.52;;
12437;SDS011;6283;51.330;12.374;2023-06-24T04:51:31;12.30;;;9.45;;
12437;SDS011;6283;51.330;12.374;2023-06-24T04:53:57;16.20;;;10.32;;
12437;SDS011;6283;51.330;12.374;2023-06-24T04:56:23;12.95;;;9.05;;
12437;SDS011;6283;51.330;12.374;2023-06-24T04:58:49;17.25;;;9.70;;
12437;SDS011;6283;51.330;12.374;2023-06-24T05:01:15;16.85;;;10.73;;
12437;SDS011;6283;51.330;12.374;2023-06-24T05:03:42;13.10;;;9.27;;
12437;SDS011;6283;51.330;12.374;2023-06-24T05:06:07;11.55;;;9.13;;
12437;SDS011;6283;51.330;12.374;2023-06-24T05:08:33;14.10;;;9.60;;
12437;SDS011;6283;51.330;12.374;2023-06-24T05:10:58;14.57;;;9.70;;
12437;SDS011;6283;51.330;12.374;2023-06-24T05:13:24;14.32;;;9.90;;
12437;SDS011;6283;51.330;12.374;2023-06-24T05:15:53;13.43;;;9.60;;
12437;SDS011;6283;51.330;12.374;2023-06-24T05:18:18;14.45;;;9.60;;
12437;SDS011;6283;51.330;12.374;2023-06-24T05:20:44;13.55;;;10.05;;
12437;SDS011;6283;51.330;12.374;2023-06-24T05:23:10;12.35;;;10.00;;
12437;SDS011;6283;51.330;12.374;2023-06-24T05:25:35;15.60;;;9.20;;
12437;SDS011;6283;51.330;12.374;2023-06-24T05:28:01;14.73;;;9.23;;
12437;SDS011;6283;51.330;12.374;2023-06-24T05:30:27;15.57;;;9.70;;
12437;SDS011;6283;51.330;12.374;2023-06-24T05:32:53;14.50;;;9.73;;
12437;SDS011;6283;51.330;12.374;2023-06-24T05:35:18;13.27;;;9.25;;
12437;SDS011;6283;51.330;12.374;2023-06-24T05:37:44;15.98;;;9.52;;
12437;SDS011;6283;51.330;12.374;2023-06-24T05:40:10;12.88;;;9.38;;
12437;SDS011;6283;51.330;12.374;2023-06-24T05:42:37;11.43;;;9.20;;
12437;SDS011;6283;51.330;12.374;2023-06-24T05:45:03;11.27;;;8.85;;
12437;SDS011;6283;51.330;12.374;2023-06-24T05:47:29;12.73;;;9.38;;
12437;SDS011;6283;51.330;12.374;2023-06-24T05:49:55;13.18;;;8.73;;
12437;SDS011;6283;51.330;12.374;2023-06-24T05:52:20;9.93;;;8.23;;
12437;SDS011;6283;51.330;12.374;2023-06-24T05:54:46;12.45;;;8.13;;
12437;SDS011;6283;51.330;12.374;2023-06-24T05:57:12;12.48;;;7.88;;
12437;SDS011;6283;51.330;12.374;2023-06-24T05:59:37;13.10;;;8.60;;
12437;SDS011;6283;51.330;12.374;2023-06-24T06:02:03;8.45;;;7.57;;
12437;SDS011;6283;51.330;12.374;2023-06-24T06:04:28;14.00;;;9.07;;
12437;SDS011;6283;51.330;12.374;2023-06-24T06:06:54;12.52;;;8.65;;
12437;SDS011;6283;51.330;12.374;2023-06-24T06:09:20;11.70;;;8.75;;
12437;SDS011;6283;51.330;12.374;2023-06-24T06:11:46;11.10;;;8.38;;
12437;SDS011;6283;51.330;12.374;2023-06-24T06:14:12;11.07;;;8.02;;
12437;SDS011;6283;51.330;12.374;2023-06-24T06:16:38;8.77;;;7.88;;
12437;SDS011;6283;51.330;12.374;2023-06-24T06:19:04;11.43;;;9.07;;
12437;SDS011;6283;51.330;12.374;2023-06-24T06:21:30;10.40;;;8.57;;
12437;SDS011;6283;51.330;12.374;2023-06-24T06:23:55;12.63;;;9.07;;
12437;SDS011;6283;51.330;12.374;2023-06-24T06:26:21;13.95;;;8.70;;
12437;SDS011;6283;51.330;12.374;2023-06-24T06:28:47;12.45;;;9.52;;
12437;SDS011;6283;51.330;12.374;2023-06-24T06:31:13;12.18;;;9.13;;
12437;SDS011;6283;51.330;12.374;2023-06-24T06:33:39;13.05;;;9.40;;
12437;SDS011;6283;51.330;12.374;2023-06-24T06:36:04;13.65;;;9.73;;
12437;SDS011;6283;51.330;12.374;2023-06-24T06:38:32;11.85;;;9.00;;
12437;SDS011;6283;51.330;12.374;2023-06-24T06:40:58;13.00;;;9.93;;
12437;SDS011;6283;51.330;12.374;2023-06-24T06:43:23;12.32;;;9.75;;
12437;SDS011;6283;51.330;12.374;2023-06-24T06:45:49;12.45;;;8.52;;
12437;SDS011;6283;51.330;12.374;2023-06-24T06:48:14;11.63;;;9.23;;
12437;SDS011;6283;51.330;12.374;2023-06-24T06:50:40;13.20;;;9.15;;
12437;SDS011;6283;51.330;12.374;2023-06-24T06:53:05;13.13;;;9.75;;
12437;SDS011;6283;51.330;12.374;2023-06-24T06:55:31;11.65;;;9.15;;
12437;SDS011;6283;51.330;12.374;2023-06-24T06:57:57;12.23;;;9.75;;
12437;SDS011;6283;51.330;12.374;2023-06-24T07:00:23;10.77;;;8.45;;
12437;SDS011;6283;51.330;12.374;2023-06-24T07:02:48;11.13;;;8.85;;
12437;SDS011;6283;51.330;12.374;2023-06-24T07:05:14;10.50;;;8.75;;
12437;SDS011;6283;51.330;12.374;2023-06-24T07:07:39;11.07;;;9.02;;
12437;SDS011;6283;51.330;12.374;2023-06-24T07:10:05;11.23;;;7.97;;
12437;SDS011;6283;51.330;12.374;2023-06-24T07:12:31;9.52;;;8.50;;
12437;SDS011;6283;51.330;12.374;2023-06-24T07:14:57;12.48;;;8.60;;
12437;SDS011;6283;51.330;12.374;2023-06-24T07:17:22;13.50;;;8.75;;
12437;SDS011;6283;51.330;12.374;2023-06-24T07:19:48;12.88;;;8.80;;
12437;SDS011;6283;51.330;12.374;2023-06-24T07:22:14;10.10;;;8.82;;
12437;SDS011;6283;51.330;12.374;2023-06-24T07:24:40;12.52;;;8.55;;
12437;SDS011;6283;51.330;12.374;2023-06-24T07:27:06;13.88;;;9.07;;
12437;SDS011;6283;51.330;12.374;2023-06-24T07:29:32;11.85;;;8.48;;
12437;SDS011;6283;51.330;12.374;2023-06-24T07:31:58;11.15;;;8.68;;
12437;SDS011;6283;51.330;12.374;2023-06-24T07:34:24;11.90;;;8.77;;
12437;SDS011;6283;51.330;12.374;2023-06-24T07:36:49;9.82;;;8.00;;
12437;SDS011;6283;51.330;12.374;2023-06-24T07:39:18;13.40;;;8.38;;
12437;SDS011;6283;51.330;12.374;2023-06-24T07:41:43;9.13;;;8.02;;
12437;SDS011;6283;51.330;12.374;2023-06-24T07:44:09;10.38;;;7.53;;
12437;SDS011;6283;51.330;12.374;2023-06-24T07:46:35;7.95;;;7.03;;
12437;SDS011;6283;51.330;12.374;2023-06-24T07:49:01;9.95;;;8.07;;
12437;SDS011;6283;51.330;12.374;2023-06-24T07:51:27;10.07;;;7.22;;
12437;SDS011;6283;51.330;12.374;2023-06-24T07:53:52;10.70;;;7.80;;
12437;SDS011;6283;51.330;12.374;2023-06-24T07:56:18;9.88;;;8.77;;
12437;SDS011;6283;51.330;12.374;2023-06-24T07:58:43;9.13;;;8.00;;
12437;SDS011;6283;51.330;12.374;2023-06-24T08:01:09;9.60;;;7.97;;
12437;SDS011;6283;51.330;12.374;2023-06-24T08:03:35;9.60;;;7.90;;
12437;SDS011;6283;51.330;12.374;2023-06-24T08:06:02;8.65;;;7.65;;
12437;SDS011;6283;51.330;12.374;2023-06-24T08:08:28;9.88;;;7.22;;
12437;SDS011;6283;51.330;12.374;2023-06-24T08:10:53;9.45;;;8.15;;
12437;SDS011;6283;51.330;12.374;2023-06-24T08:13:19;9.30;;;7.43;;
12437;SDS011;6283;51.330;12.374;2023-06-24T08:15:45;8.27;;;7.47;;
12437;SDS011;6283;51.330;12.374;2023-06-24T08:18:10;11.00;;;7.88;;
12437;SDS011;6283;51.330;12.374;2023-06-24T08:20:36;10.75;;;8.02;;
12437;SDS011;6283;51.330;12.374;2023-06-24T08:23:01;11.23;;;7.80;;
12437;SDS011;6283;51.330;12.374;2023-06-24T08:25:27;7.93;;;6.45;;
12437;SDS011;6283;51.330;12.374;2023-06-24T08:27:53;7.30;;;5.82;;
12437;SDS011;6283;51.330;12.374;2023-06-24T08:30:18;8.75;;;6.60;;
12437;SDS011;6283;51.330;12.374;2023-06-24T08:32:44;8.40;;;5.95;;
12437;SDS011;6283;51.330;12.374;2023-06-24T08:35:10;6.50;;;5.90;;
12437;SDS011;6283;51.330;12.374;2023-06-24T08:37:36;6.60;;;5.75;;
12437;SDS011;6283;51.330;12.374;2023-06-24T08:40:02;6.32;;;5.40;;
12437;SDS011;6283;51.330;12.374;2023-06-24T08:42:29;5.82;;;5.20;;
12437;SDS011;6283;51.330;12.374;2023-06-24T08:44:55;6.68;;;5.53;;
12437;SDS011;6283;51.330;12.374;2023-06-24T08:47:21;7.07;;;5.20;;
12437;SDS011;6283;51.330;12.374;2023-06-24T08:49:53;5.57;;;5.07;;
12437;SDS011;6283;51.330;12.374;2023-06-24T08:52:29;8.68;;;6.10;;
12437;SDS011;6283;51.330;12.374;2023-06-24T08:54:56;6.25;;;5.65;;
12437;SDS011;6283;51.330;12.374;2023-06-24T08:57:24;8.60;;;6.00;;
12437;SDS011;6283;51.330;12.374;2023-06-24T08:59:50;6.35;;;5.70;;
12437;SDS011;6283;51.330;12.374;2023-06-24T09:02:15;5.97;;;5.43;;
12437;SDS011;6283;51.330;12.374;2023-06-24T09:04:41;6.38;;;5.20;;
12437;SDS011;6283;51.330;12.374;2023-06-24T09:07:07;7.72;;;5.28;;
12437;SDS011;6283;51.330;12.374;2023-06-24T09:09:33;6.10;;;5.32;;
12437;SDS011;6283;51.330;12.374;2023-06-24T09:12:08;5.10;;;4.60;;
12437;SDS011;6283;51.330;12.374;2023-06-24T09:14:36;5.75;;;5.25;;
12437;SDS011;6283;51.330;12.374;2023-06-24T09:17:02;6.63;;;5.05;;
12437;SDS011;6283;51.330;12.374;2023-06-24T09:19:30;6.15;;;5.55;;
12437;SDS011;6283;51.330;12.374;2023-06-24T09:22:04;6.25;;;5.40;;
12437;SDS011;6283;51.330;12.374;2023-06-24T09:24:31;5.28;;;4.78;;
12437;SDS011;6283;51.330;12.374;2023-06-24T09:26:58;5.18;;;4.70;;
12437;SDS011;6283;51.330;12.374;2023-06-24T09:29:27;5.30;;;4.65;;
12437;SDS011;6283;51.330;12.374;2023-06-24T09:31:56;5.68;;;4.75;;
12437;SDS011;6283;51.330;12.374;2023-06-24T09:34:23;5.93;;;5.32;;
12437;SDS011;6283;51.330;12.374;2023-06-24T09:36:53;7.30;;;4.90;;
12437;SDS011;6283;51.330;12.374;2023-06-24T09:39:23;5.95;;;4.75;;
12437;SDS011;6283;51.330;12.374;2023-06-24T09:41:58;6.18;;;5.25;;
12437;SDS011;6283;51.330;12.374;2023-06-24T09:44:26;5.43;;;4.80;;
12437;SDS011;6283;51.330;12.374;2023-06-24T09:46:52;5.72;;;4.90;;
12437;SDS011;6283;51.330;12.374;2023-06-24T09:49:19;5.68;;;4.65;;
12437;SDS011;6283;51.330;12.374;2023-06-24T09:51:46;5.05;;;4.60;;
12437;SDS011;6283;51.330;12.374;2023-06-24T09:54:14;4.97;;;4.50;;
12437;SDS011;6283;51.330;12.374;2023-06-24T09:56:50;7.22;;;4.30;;
12437;SDS011;6283;51.330;12.374;2023-06-24T09:59:21;4.55;;;4.03;;
12437;SDS011;6283;51.330;12.374;2023-06-24T10:01:49;4.85;;;4.28;;
12437;SDS011;6283;51.330;12.374;2023-06-24T10:04:18;4.85;;;4.35;;
12437;SDS011;6283;51.330;12.374;2023-06-24T10:06:45;4.63;;;4.22;;
12437;SDS011;6283;51.330;12.374;2023-06-24T10:09:11;5.13;;;4.30;;
12437;SDS011;6283;51.330;12.374;2023-06-24T10:11:38;7.03;;;5.00;;
12437;SDS011;6283;51.330;12.374;2023-06-24T10:14:04;6.38;;;5.13;;
12437;SDS011;6283;51.330;12.374;2023-06-24T10:16:30;5.60;;;4.85;;
12437;SDS011;6283;51.330;12.374;2023-06-24T10:19:00;6.38;;;5.03;;
12437;SDS011;6283;51.330;12.374;2023-06-24T10:21:46;5.05;;;4.40;;
12437;SDS011;6283;51.330;12.374;2023-06-24T10:27:07;5.60;;;3.92;;
12437;SDS011;6283;51.330;12.374;2023-06-24T10:29:38;5.68;;;4.53;;
12437;SDS011;6283;51.330;12.374;2023-06-24T10:32:08;5.38;;;4.35;;
12437;SDS011;6283;51.330;12.374;2023-06-24T10:37:03;4.97;;;4.30;;
12437;SDS011;6283;51.330;12.374;2023-06-24T10:50:12;5.82;;;4.05;;
12437;SDS011;6283;51.330;12.374;2023-06-24T10:52:43;4.65;;;4.18;;
12437;SDS011;6283;51.330;12.374;2023-06-24T10:55:10;4.95;;;3.90;;
12437;SDS011;6283;51.330;12.374;2023-06-24T10:57:38;4.88;;;4.28;;
12437;SDS011;6283;51.330;12.374;2023-06-24T11:00:04;5.18;;;3.72;;
12437;SDS011;6283;51.330;12.374;2023-06-24T11:02:30;4.13;;;3.50;;
12437;SDS011;6283;51.330;12.374;2023-06-24T11:04:56;4.50;;;4.10;;
12437;SDS011;6283;51.330;12.374;2023-06-24T11:07:24;5.80;;;3.80;;
12437;SDS011;6283;51.330;12.374;2023-06-24T11:09:51;3.83;;;3.53;;
12437;SDS011;6283;51.330;12.374;2023-06-24T11:12:25;4.43;;;4.03;;
12437;SDS011;6283;51.330;12.374;2023-06-24T11:14:54;4.28;;;3.75;;
12437;SDS011;6283;51.330;12.374;2023-06-24T11:17:24;4.75;;;4.05;;
12437;SDS011;6283;51.330;12.374;2023-06-24T11:19:52;4.68;;;4.10;;
12437;SDS011;6283;51.330;12.374;2023-06-24T11:22:21;5.65;;;3.97;;
12437;SDS011;6283;51.330;12.374;2023-06-24T11:24:48;4.78;;;3.47;;
12437;SDS011;6283;51.330;12.374;2023-06-24T11:27:14;4.00;;;3.60;;
12437;SDS011;6283;51.330;12.374;2023-06-24T11:29:39;4.32;;;3.35;;
12437;SDS011;6283;51.330;12.374;2023-06-24T11:32:08;3.38;;;3.08;;
12437;SDS011;6283;51.330;12.374;2023-06-24T11:34:34;4.20;;;3.58;;
12437;SDS011;6283;51.330;12.374;2023-06-24T11:37:14;3.95;;;3.53;;
12437;SDS011;6283;51.330;12.374;2023-06-24T11:39:42;3.80;;;3.50;;
12437;SDS011;6283;51.330;12.374;2023-06-24T11:42:08;3.40;;;3.10;;
12437;SDS011;6283;51.330;12.374;2023-06-24T11:44:35;3.70;;;3.40;;
12437;SDS011;6283;51.330;12.374;2023-06-24T11:47:07;3.88;;;3.58;;
12437;SDS011;6283;51.330;12.374;2023-06-24T11:49:49;5.20;;;3.40;;
12437;SDS011;6283;51.330;12.374;2023-06-24T11:52:44;3.85;;;3.45;;
12437;SDS011;6283;51.330;12.374;2023-06-24T11:55:20;3.92;;;3.60;;
12437;SDS011;6283;51.330;12.374;2023-06-24T11:57:54;3.63;;;3.33;;
12437;SDS011;6283;51.330;12.374;2023-06-24T12:00:25;3.85;;;3.10;;
12437;SDS011;6283;51.330;12.374;2023-06-24T12:02:58;3.75;;;3.10;;
12437;SDS011;6283;51.330;12.374;2023-06-24T12:05:33;3.13;;;2.92;;
12437;SDS011;6283;51.330;12.374;2023-06-24T12:08:01;4.15;;;3.80;;
12437;SDS011;6283;51.330;12.374;2023-06-24T12:10:31;3.63;;;3.33;;
12437;SDS011;6283;51.330;12.374;2023-06-24T12:12:58;4.82;;;4.40;;
12437;SDS011;6283;51.330;12.374;2023-06-24T12:15:28;3.83;;;3.45;;
12437;SDS011;6283;51.330;12.374;2023-06-24T12:17:54;3.83;;;3.42;;
12437;SDS011;6283;51.330;12.374;2023-06-24T12:20:20;3.85;;;3.55;;
12437;SDS011;6283;51.330;12.374;2023-06-24T12:22:47;3.88;;;3.22;;
12437;SDS011;6283;51.330;12.374;2023-06-24T12:25:13;3.65;;;3.30;;
12437;SDS011;6283;51.330;12.374;2023-06-24T12:27:39;4.25;;;3.45;;
12437;SDS011;6283;51.330;12.374;2023-06-24T12:30:07;3.70;;;3.40;;
12437;SDS011;6283;51.330;12.374;2023-06-24T12:32:33;3.50;;;3.17;;
12437;SDS011;6283;51.330;12.374;2023-06-24T12:34:58;3.40;;;3.10;;
12437;SDS011;6283;51.330;12.374;2023-06-24T12:37:24;3.60;;;3.30;;
12437;SDS011;6283;51.330;12.374;2023-06-24T12:39:50;3.63;;;3.33;;
12437;SDS011;6283;51.330;12.374;2023-06-24T12:42:18;4.80;;;3.10;;
12437;SDS011;6283;51.330;12.374;2023-06-24T12:44:44;4.30;;;3.38;;
12437;SDS011;6283;51.330;12.374;2023-06-24T12:47:10;3.70;;;3.30;;
12437;SDS011;6283;51.330;12.374;2023-06-24T12:49:35;3.50;;;3.20;;
12437;SDS011;6283;51.330;12.374;2023-06-24T12:52:01;4.80;;;3.33;;
12437;SDS011;6283;51.330;12.374;2023-06-24T12:54:27;3.72;;;3.42;;
12437;SDS011;6283;51.330;12.374;2023-06-24T12:56:52;4.15;;;3.65;;
12437;SDS011;6283;51.330;12.374;2023-06-24T12:59:18;3.90;;;3.60;;
12437;SDS011;6283;51.330;12.374;2023-06-24T13:01:44;3.50;;;3.30;;
12437;SDS011;6283;51.330;12.374;2023-06-24T13:04:10;4.28;;;2.97;;
12437;SDS011;6283;51.330;12.374;2023-06-24T13:06:36;4.03;;;3.30;;
12437;SDS011;6283;51.330;12.374;2023-06-24T13:09:02;3.20;;;3.00;;
12437;SDS011;6283;51.330;12.374;2023-06-24T13:11:28;3.55;;;3.25;;
12437;SDS011;6283;51.330;12.374;2023-06-24T13:13:56;3.47;;;3.17;;
12437;SDS011;6283;51.330;12.374;2023-06-24T13:16:21;3.83;;;3.53;;
12437;SDS011;6283;51.330;12.374;2023-06-24T13:18:47;4.20;;;3.38;;
12437;SDS011;6283;51.330;12.374;2023-06-24T13:21:12;5.28;;;3.47;;
12437;SDS011;6283;51.330;12.374;2023-06-24T13:23:39;3.42;;;3.20;;
12437;SDS011;6283;51.330;12.374;2023-06-24T13:26:05;3.60;;;3.30;;
12437;SDS011;6283;51.330;12.374;2023-06-24T13:28:31;4.35;;;3.40;;
12437;SDS011;6283;51.330;12.374;2023-06-24T13:30:57;3.92;;;3.63;;
12437;SDS011;6283;51.330;12.374;2023-06-24T13:33:23;3.97;;;3.33;;
12437;SDS011;6283;51.330;12.374;2023-06-24T13:35:49;4.80;;;3.80;;
12437;SDS011;6283;51.330;12.374;2023-06-24T13:38:16;5.95;;;3.40;;
12437;SDS011;6283;51.330;12.374;2023-06-24T13:40:42;4.18;;;3.83;;
12437;SDS011;6283;51.330;12.374;2023-06-24T13:43:07;5.18;;;3.22;;
12437;SDS011;6283;51.330;12.374;2023-06-24T13:45:33;5.95;;;3.53;;
12437;SDS011;6283;51.330;12.374;2023-06-24T13:47:59;3.85;;;3.47;;
12437;SDS011;6283;51.330;12.374;2023-06-24T13:50:24;3.72;;;3.22;;
12437;SDS011;6283;51.330;12.374;2023-06-24T13:52:50;3.25;;;3.00;;
12437;SDS011;6283;51.330;12.374;2023-06-24T13:55:16;3.47;;;3.28;;
12437;SDS011;6283;51.330;12.374;2023-06-24T13:57:41;4.63;;;3.88;;
12437;SDS011;6283;51.330;12.374;2023-06-24T14:00:07;3.67;;;3.35;;
12437;SDS011;6283;51.330;12.374;2023-06-24T14:02:34;3.83;;;3.53;;
12437;SDS011;6283;51.330;12.374;2023-06-24T14:04:59;3.72;;;3.30;;
12437;SDS011;6283;51.330;12.374;2023-06-24T14:07:25;3.47;;;3.17;;
12437;SDS011;6283;51.330;12.374;2023-06-24T14:09:51;3.70;;;3.40;;
12437;SDS011;6283;51.330;12.374;2023-06-24T14:12:16;3.95;;;3.65;;
12437;SDS011;6283;51.330;12.374;2023-06-24T14:14:42;3.78;;;3.47;;
12437;SDS011;6283;51.330;12.374;2023-06-24T14:17:08;4.68;;;3.25;;
12437;SDS011;6283;51.330;12.374;2023-06-24T14:19:35;3.38;;;3.08;;
12437;SDS011;6283;51.330;12.374;2023-06-24T14:22:01;4.00;;;3.38;;
12437;SDS011;6283;51.330;12.374;2023-06-24T14:24:26;3.83;;;3.33;;
12437;SDS011;6283;51.330;12.374;2023-06-24T14:26:52;3.35;;;3.03;;
12437;SDS011;6283;51.330;12.374;2023-06-24T14:29:18;3.70;;;3.40;;
12437;SDS011;6283;51.330;12.374;2023-06-24T14:31:44;3.50;;;3.20;;
12437;SDS011;6283;51.330;12.374;2023-06-24T14:34:09;3.70;;;3.40;;
12437;SDS011;6283;51.330;12.374;2023-06-24T14:36:35;3.13;;;2.92;;
12437;SDS011;6283;51.330;12.374;2023-06-24T14:39:01;4.32;;;3.25;;
12437;SDS011;6283;51.330;12.374;2023-06-24T14:41:27;3.60;;;3.30;;
12437;SDS011;6283;51.330;12.374;2023-06-24T14:43:52;2.88;;;2.67;;
12437;SDS011;6283;51.330;12.374;2023-06-24T14:46:18;3.25;;;3.05;;
12437;SDS011;6283;51.330;12.374;2023-06-24T14:48:43;3.40;;;3.10;;
12437;SDS011;6283;51.330;12.374;2023-06-24T14:51:09;3.95;;;3.60;;
12437;SDS011;6283;51.330;12.374;2023-06-24T14:53:35;3.25;;;3.05;;
12437;SDS011;6283;51.330;12.374;2023-06-24T14:56:00;3.10;;;2.90;;
12437;SDS011;6283;51.330;12.374;2023-06-24T14:58:26;4.13;;;3.25;;
12437;SDS011;6283;51.330;12.374;2023-06-24T15:00:52;3.35;;;3.03;;
12437;SDS011;6283;51.330;12.374;2023-06-24T15:03:20;3.25;;;3.05;;
12437;SDS011;6283;51.330;12.374;2023-06-24T15:05:46;3.40;;;3.08;;